Terminal Aerodrome Forecast
Issued by NWS

Home | Current Version | Previous Version | Text Only | Print | Product List | Glossary On
Versions: 1 2 3 4 5 6 7 8 9 10 11 12 13 14 15 16 17 18 19
000
FTUS42 KMLB 201723
TAFFPR
TAF
KFPR 201723Z 2018/2118 12008KT P6SM VCSH SCT035
      TEMPO 2022/2024 3SM TSRA BKN030CB
     FM210200 15007KT P6SM FEW040 BKN120 OVC250
     FM211400 18006KT P6SM SCT035 BKN250=

USA.gov is the U.S. government's official web portal to all federal, state and local government web resources and services.